Time;durP1;ratioP1;P1;durP2;ratioP2;P2;SDS_P1;SDS_P2;PMS_P1;PMS_P2;Temp;Humidity;BMP_temperature;BMP_pressure;BME280_temperature;BME280_humidity;BME280_pressure;Samples;Min_cycle;Max_cycle;Signal;HPM_P1;HPM_P2
2022/09/25 00:01:08;;;;;;;9.48;1.92;;;40.60;41.60;;;;;;5022113;28;20034;-61
2022/09/25 00:03:34;;;;;;;7.45;2.03;;;40.50;42.40;;;;;;5017093;28;20030;-62
2022/09/25 00:06:07;;;;;;;15.07;2.22;;;40.50;41.80;;;;;;5012196;28;20180;-62
2022/09/25 00:08:35;;;;;;;12.98;2.22;;;40.40;42.60;;;;;;5010856;28;20396;-64
2022/09/25 00:11:07;;;;;;;12.77;2.30;;;40.40;42.20;;;;;;5011311;28;20041;-65
2022/09/25 00:13:35;;;;;;;12.73;2.05;;;40.20;42.40;;;;;;5026002;28;20125;-62
2022/09/25 00:16:02;;;;;;;14.38;1.90;;;40.20;42.10;;;;;;4992905;28;20033;-61
2022/09/25 00:21:15;;;;;;;12.55;2.53;;;40.20;43.60;;;;;;5010037;28;20076;-60
2022/09/25 00:23:43;;;;;;;12.40;2.30;;;40.00;42.40;;;;;;5009827;28;20026;-61
2022/09/25 00:26:12;;;;;;;8.40;2.38;;;40.00;42.50;;;;;;5008025;28;20117;-61
2022/09/25 00:28:40;;;;;;;16.17;2.13;;;40.00;42.00;;;;;;4991903;28;20061;-61
2022/09/25 00:31:08;;;;;;;6.45;2.05;;;40.00;42.00;;;;;;5012491;28;20038;-62
2022/09/25 00:33:35;;;;;;;15.90;3.00;;;39.90;42.60;;;;;;5006084;28;20088;-62
2022/09/25 00:36:07;;;;;;;16.33;3.53;;;39.80;42.30;;;;;;5009966;28;20036;-60
2022/09/25 00:38:35;;;;;;;18.30;2.88;;;39.80;42.50;;;;;;4991552;28;20026;-60
2022/09/25 00:41:02;;;;;;;14.23;2.80;;;39.70;42.40;;;;;;5001742;28;20080;-64
2022/09/25 00:43:40;;;;;;;18.80;2.92;;;39.70;43.10;;;;;;4998693;28;20041;-60
2022/09/25 00:46:30;;;;;;;12.85;2.80;;;39.60;43.30;;;;;;5000909;28;20476;-60
2022/09/25 00:49:03;;;;;;;16.98;3.30;;;39.50;43.20;;;;;;4985819;28;20069;-63
2022/09/25 00:51:45;;;;;;;13.68;2.50;;;39.50;43.10;;;;;;4996980;28;20029;-58
2022/09/25 00:54:44;;;;;;;17.98;3.20;;;39.40;43.70;;;;;;5011461;28;20117;-62
2022/09/25 00:57:14;;;;;;;12.55;2.72;;;39.30;43.60;;;;;;4997124;28;20500;-63
2022/09/25 00:59:45;;;;;;;19.35;3.17;;;39.30;44.10;;;;;;4985463;28;20400;-61
2022/09/25 01:02:18;;;;;;;14.73;2.47;;;39.10;43.60;;;;;;5009892;28;20064;-61
2022/09/25 01:04:46;;;;;;;13.95;2.63;;;39.10;44.40;;;;;;4999136;28;20022;-61
2022/09/25 01:07:13;;;;;;;11.65;2.50;;;39.00;43.80;;;;;;5002885;28;20025;-63
2022/09/25 01:09:40;;;;;;;11.60;2.95;;;38.90;43.30;;;;;;4978839;28;20030;-62
2022/09/25 01:12:08;;;;;;;14.55;2.83;;;38.90;44.40;;;;;;4999387;28;20041;-61
2022/09/25 01:14:35;;;;;;;14.80;2.67;;;38.80;44.10;;;;;;4999934;28;20038;-63
2022/09/25 01:17:40;;;;;;;16.50;3.47;;;38.80;44.20;;;;;;5011150;28;20617;-62
2022/09/25 01:20:40;;;;;;;10.75;3.30;;;38.60;53.00;;;;;;4984304;28;20396;-62
2022/09/25 01:23:30;;;;;;;7.70;3.10;;;38.60;43.50;;;;;;4991229;28;20030;-62
2022/09/25 01:26:32;;;;;;;9.73;2.97;;;38.40;43.80;;;;;;4981107;28;20038;-61
2022/09/25 01:28:58;;;;;;;9.10;2.17;;;38.40;44.10;;;;;;4956546;28;20109;-61
2022/09/25 01:31:34;;;;;;;10.65;2.80;;;38.40;44.00;;;;;;4949988;28;20063;-62
2022/09/25 01:34:11;;;;;;;16.15;2.60;;;38.30;72.20;;;;;;4930978;28;20034;-63
2022/09/25 01:36:47;;;;;;;7.75;2.00;;;37.90;59.50;;;;;;4944739;28;20422;-62
2022/09/25 01:39:27;;;;;;;8.10;1.85;;;38.10;67.10;;;;;;4946828;28;20051;-64
2022/09/25 01:42:05;;;;;;;12.57;6.05;;;38.00;44.20;;;;;;4947393;28;20134;-61
2022/09/25 01:44:58;;;;;;;16.48;4.40;;;38.10;44.50;;;;;;4932775;28;20039;-60
2022/09/25 01:47:28;;;;;;;4.97;2.55;;;37.70;55.20;;;;;;4950664;28;20143;-61
2022/09/25 01:50:03;;;;;;;8.85;2.58;;;;;;;;;;4933172;28;20146;-62
2022/09/25 01:52:46;;;;;;;6.03;2.15;;;37.70;44.30;;;;;;4941855;28;20039;-62
2022/09/25 01:55:27;;;;;;;9.43;2.42;;;37.70;44.90;;;;;;4941318;28;20022;-61
2022/09/25 01:58:02;;;;;;;10.25;2.25;;;37.60;44.80;;;;;;4948189;28;20031;-63
2022/09/25 02:00:29;;;;;;;13.68;2.58;;;37.50;45.00;;;;;;4932876;28;20537;-63
2022/09/25 02:03:05;;;;;;;14.00;2.63;;;37.30;57.60;;;;;;4950932;28;20027;-63
2022/09/25 02:05:42;;;;;;;12.43;2.25;;;37.40;44.50;;;;;;4991010;28;20121;-61
2022/09/25 02:08:30;;;;;;;10.55;2.70;;;37.20;44.80;;;;;;5017395;28;20137;-62
2022/09/25 02:11:03;;;;;;;9.18;2.33;;;37.40;46.10;;;;;;5017000;28;20476;-62
2022/09/25 02:14:00;;;;;;;11.48;2.60;;;37.10;57.30;;;;;;4993435;28;20026;-64
2022/09/25 02:16:37;;;;;;;9.13;3.08;;;37.10;46.50;;;;;;4997135;28;20454;-63
2022/09/25 02:22:08;;;;;;;15.68;3.20;;;36.80;47.80;;;;;;4992669;28;20057;-60
2022/09/25 02:24:47;;;;;;;26.00;3.57;;;36.80;49.10;;;;;;5009873;28;20049;-64
2022/09/25 02:27:15;;;;;;;21.33;3.50;;;36.80;48.40;;;;;;4995538;28;20050;-63
2022/09/25 02:29:41;;;;;;;16.60;3.42;;;36.70;48.50;;;;;;4997111;28;20432;-63
2022/09/25 02:32:10;;;;;;;16.17;2.92;;;36.80;53.20;;;;;;4990602;28;20121;-63
2022/09/25 02:34:37;;;;;;;19.35;3.63;;;;;;;;;;5011182;28;20453;-63
2022/09/25 02:37:11;;;;;;;24.23;3.63;;;36.60;49.70;;;;;;4994269;28;20440;-63
2022/09/25 02:39:37;;;;;;;19.70;4.35;;;;;;;;;;4992023;28;20026;-64
2022/09/25 02:42:41;;;;;;;25.75;4.10;;;36.50;49.50;;;;;;4993161;28;20092;-64
2022/09/25 02:45:26;;;;;;;19.63;4.43;;;36.60;65.80;;;;;;4990375;28;20476;-63
2022/09/25 02:48:07;;;;;;;25.30;4.22;;;36.30;67.60;;;;;;4993239;28;20026;-63
2022/09/25 02:51:03;;;;;;;32.22;5.20;;;36.40;50.40;;;;;;4993009;28;20498;-63
2022/09/25 02:53:44;;;;;;;26.65;4.10;;;36.40;50.10;;;;;;4977203;28;20030;-62
2022/09/25 02:56:30;;;;;;;30.20;4.63;;;36.50;67.70;;;;;;5003753;28;20034;-62
2022/09/25 02:59:01;;;;;;;29.67;4.82;;;36.30;50.30;;;;;;4991298;28;20514;-62
2022/09/25 03:01:32;;;;;;;19.60;4.80;;;36.10;56.90;;;;;;4992183;28;20034;-61
2022/09/25 03:04:00;;;;;;;32.58;5.32;;;36.10;69.30;;;;;;4995699;28;20029;-62
2022/09/25 03:06:27;;;;;;;22.33;5.00;;;36.40;69.90;;;;;;4974208;28;20504;-61
2022/09/25 03:08:56;;;;;;;35.00;5.18;;;36.00;73.40;;;;;;5000080;28;20137;-62
2022/09/25 03:11:27;;;;;;;30.17;5.38;;;36.00;51.30;;;;;;5013944;28;20030;-63
2022/09/25 03:13:59;;;;;;;22.83;6.15;;;35.90;67.00;;;;;;5015421;28;20477;-63
2022/09/25 03:16:52;;;;;;;44.15;7.03;;;35.50;82.70;;;;;;5018400;28;20030;-66
2022/09/25 03:19:21;;;;;;;23.50;6.00;;;35.80;79.80;;;;;;5015321;28;20076;-63
2022/09/25 03:21:49;;;;;;;41.20;6.20;;;35.90;68.80;;;;;;5002284;28;20108;-63
2022/09/25 03:24:16;;;;;;;20.02;5.15;;;35.90;68.50;;;;;;5002854;28;20057;-63
2022/09/25 03:26:43;;;;;;;29.08;6.03;;;35.30;67.50;;;;;;4997880;28;20062;-63
2022/09/25 03:29:11;;;;;;;23.38;5.88;;;35.70;54.90;;;;;;4984971;28;20058;-60
2022/09/25 03:31:38;;;;;;;26.35;5.72;;;35.50;67.20;;;;;;5002624;28;20540;-61
2022/09/25 03:34:05;;;;;;;40.70;5.70;;;35.80;69.80;;;;;;5001514;28;20728;-61
2022/09/25 03:36:32;;;;;;;20.67;4.80;;;35.60;69.50;;;;;;5000006;28;20381;-61
2022/09/25 03:38:59;;;;;;;24.08;5.63;;;35.60;63.20;;;;;;5002803;28;20033;-61
2022/09/25 03:41:29;;;;;;;28.17;4.97;;;35.50;70.40;;;;;;4998664;28;20385;-62
2022/09/25 03:43:56;;;;;;;50.45;7.43;;;35.60;60.10;;;;;;5017375;28;20655;-64
2022/09/25 03:46:25;;;;;;;26.27;5.03;;;35.10;71.80;;;;;;4978206;28;20026;-61
2022/09/25 03:48:54;;;;;;;35.63;4.75;;;35.60;72.90;;;;;;5011974;28;20049;-63
2022/09/25 03:51:21;;;;;;;34.17;5.30;;;35.40;52.80;;;;;;4995735;28;20030;-61
2022/09/25 03:53:49;;;;;;;37.72;6.63;;;35.30;73.50;;;;;;5004794;28;20024;-63
2022/09/25 03:56:22;;;;;;;30.30;6.30;;;35.30;71.50;;;;;;5001164;28;20037;-61
2022/09/25 03:58:50;;;;;;;35.80;6.45;;;35.30;72.70;;;;;;5000243;28;20081;-62
2022/09/25 04:01:20;;;;;;;45.28;6.68;;;35.30;53.20;;;;;;4996955;28;20050;-63
2022/09/25 04:03:47;;;;;;;41.80;6.50;;;35.20;74.40;;;;;;5014152;28;20021;-62
2022/09/25 04:06:19;;;;;;;26.52;5.55;;;35.70;73.80;;;;;;5001096;28;20508;-62
2022/09/25 04:08:46;;;;;;;44.30;6.55;;;35.20;53.40;;;;;;4997824;28;20037;-62
2022/09/25 04:11:14;;;;;;;46.00;6.82;;;35.10;74.30;;;;;;4990553;28;20049;-61
2022/09/25 04:13:42;;;;;;;34.33;9.23;;;;;;;;;;4979503;28;20026;-62
2022/09/25 04:16:10;;;;;;;39.33;9.30;;;35.20;67.70;;;;;;5012396;28;20027;-61
2022/09/25 04:18:37;;;;;;;39.60;8.63;;;35.10;71.00;;;;;;4998513;28;20125;-62
2022/09/25 04:21:07;;;;;;;36.58;8.30;;;35.30;52.00;;;;;;4994327;28;20018;-64
2022/09/25 04:23:35;;;;;;;37.25;8.40;;;35.30;51.80;;;;;;5006655;28;20030;-62
2022/09/25 04:26:01;;;;;;;40.92;7.70;;;;;;;;;;4992017;28;20495;-62
2022/09/25 04:28:30;;;;;;;42.10;9.15;;;35.40;51.20;;;;;;5013740;28;20028;-62
2022/09/25 04:30:57;;;;;;;39.03;7.97;;;35.50;50.00;;;;;;5003339;28;20484;-62
2022/09/25 04:36:08;;;;;;;32.88;6.07;;;35.50;63.50;;;;;;4999630;28;20060;-62
2022/09/25 04:38:34;;;;;;;29.23;5.20;;;35.40;52.60;;;;;;5000991;28;20030;-61
2022/09/25 04:41:02;;;;;;;22.35;4.63;;;35.60;62.60;;;;;;5000226;28;20121;-61
2022/09/25 04:43:29;;;;;;;23.63;4.45;;;35.50;54.30;;;;;;4996192;28;20019;-62
2022/09/25 04:46:01;;;;;;;15.02;2.90;;;35.50;61.60;;;;;;5017086;28;20026;-63
2022/09/25 04:48:28;;;;;;;12.98;3.38;;;35.40;60.70;;;;;;5007693;28;20026;-61
2022/09/25 04:50:55;;;;;;;14.70;3.20;;;35.40;60.30;;;;;;4996263;28;20045;-64
2022/09/25 04:53:21;;;;;;;12.40;2.47;;;;;;;;;;4994768;28;20053;-64
2022/09/25 04:55:48;;;;;;;7.78;2.10;;;35.10;69.40;;;;;;4996836;28;20030;-64
2022/09/25 04:58:15;;;;;;;17.48;2.88;;;35.20;72.60;;;;;;4995622;28;20023;-61
2022/09/25 05:00:41;;;;;;;35.33;3.20;;;35.30;68.20;;;;;;4996249;28;20053;-62
2022/09/25 05:03:08;;;;;;;20.23;2.60;;;35.10;68.10;;;;;;5015799;28;20022;-62
2022/09/25 05:05:34;;;;;;;17.00;3.03;;;34.90;49.70;;;;;;4996522;28;20112;-62
2022/09/25 05:08:02;;;;;;;10.65;2.78;;;34.70;64.50;;;;;;5003434;28;20040;-62
2022/09/25 05:10:31;;;;;;;17.00;3.00;;;35.00;63.00;;;;;;4996552;28;20037;-63
2022/09/25 05:13:02;;;;;;;9.25;2.80;;;34.90;44.30;;;;;;5015010;28;20038;-63
2022/09/25 05:15:31;;;;;;;12.98;3.03;;;34.80;65.30;;;;;;5007192;28;20051;-63
2022/09/25 05:18:16;;;;;;;9.85;2.78;;;34.90;61.80;;;;;;5000244;28;20440;-63
2022/09/25 05:20:43;;;;;;;17.38;3.20;;;34.90;46.20;;;;;;5013504;28;20061;-64
2022/09/25 05:23:10;;;;;;;18.92;3.30;;;34.80;45.20;;;;;;4997037;28;20096;-63
2022/09/25 05:25:36;;;;;;;11.95;2.85;;;34.70;63.90;;;;;;4994687;28;20022;-62
2022/09/25 05:28:03;;;;;;;14.85;3.03;;;;;;;;;;5020503;28;20033;-61
2022/09/25 05:30:37;;;;;;;10.07;3.30;;;34.80;64.00;;;;;;4992570;28;20022;-64
2022/09/25 05:33:04;;;;;;;15.07;3.92;;;34.40;58.40;;;;;;4978598;28;20374;-63
2022/09/25 05:35:32;;;;;;;13.52;3.45;;;34.70;63.00;;;;;;4994632;28;20110;-62
2022/09/25 05:37:58;;;;;;;15.23;3.60;;;;;;;;;;4996512;28;20022;-63
2022/09/25 05:40:25;;;;;;;9.60;3.13;;;34.60;43.30;;;;;;5011077;28;20460;-63
2022/09/25 05:42:52;;;;;;;11.52;3.70;;;34.60;63.00;;;;;;4998657;28;20511;-62
2022/09/25 05:45:20;;;;;;;17.35;3.70;;;34.60;44.20;;;;;;4998271;28;20412;-64
2022/09/25 05:47:47;;;;;;;11.27;3.10;;;34.60;64.50;;;;;;5012205;28;20026;-64
2022/09/25 05:50:15;;;;;;;17.90;3.28;;;34.40;64.40;;;;;;5011190;28;20049;-63
2022/09/25 05:52:42;;;;;;;9.55;3.25;;;34.50;63.50;;;;;;4995229;28;20052;-64
2022/09/25 05:55:09;;;;;;;18.15;3.65;;;34.40;43.00;;;;;;4986766;28;20030;-62
2022/09/25 05:57:36;;;;;;;12.20;2.95;;;34.50;44.30;;;;;;5011648;28;20069;-62
2022/09/25 06:00:08;;;;;;;12.65;2.95;;;34.30;64.60;;;;;;5011590;28;20117;-64
2022/09/25 06:02:35;;;;;;;13.25;3.40;;;34.30;43.60;;;;;;4995906;28;20026;-65
2022/09/25 06:05:01;;;;;;;17.25;3.42;;;34.30;54.80;;;;;;4993344;28;20034;-63
2022/09/25 06:07:28;;;;;;;14.85;3.42;;;34.30;64.50;;;;;;4993673;28;20026;-63
2022/09/25 06:09:54;;;;;;;13.80;3.67;;;35.40;44.50;;;;;;4997365;28;20030;-63
2022/09/25 06:12:23;;;;;;;14.77;6.22;;;34.20;63.80;;;;;;4992522;28;20496;-64
2022/09/25 06:14:51;;;;;;;27.50;18.90;;;34.10;54.80;;;;;;4998060;28;20038;-66
2022/09/25 06:17:17;;;;;;;10.25;3.90;;;34.10;42.80;;;;;;4992924;28;20030;-63
2022/09/25 06:19:44;;;;;;;14.38;6.95;;;;;;;;;;4994775;28;20026;-64
2022/09/25 06:22:10;;;;;;;10.45;4.25;;;;;;;;;;4994903;28;20105;-66
2022/09/25 06:24:37;;;;;;;11.30;3.85;;;34.00;63.30;;;;;;4995066;28;20026;-63
2022/09/25 06:27:06;;;;;;;9.52;3.50;;;33.80;63.50;;;;;;4997301;28;20022;-64
2022/09/25 06:29:32;;;;;;;16.08;4.13;;;33.90;65.80;;;;;;5012135;28;20030;-63
2022/09/25 06:31:58;;;;;;;13.25;3.42;;;33.70;51.90;;;;;;4999472;28;20117;-61
2022/09/25 06:34:26;;;;;;;16.80;3.78;;;33.60;44.20;;;;;;5011494;28;20021;-64
2022/09/25 06:36:53;;;;;;;13.45;3.20;;;33.60;45.10;;;;;;4997693;28;20030;-62
2022/09/25 06:39:19;;;;;;;11.45;2.55;;;33.50;65.90;;;;;;5000852;28;20021;-63
2022/09/25 06:41:46;;;;;;;12.07;2.67;;;33.50;65.50;;;;;;4998296;28;20049;-64
2022/09/25 06:44:12;;;;;;;12.25;2.78;;;;;;;;;;5016149;28;20018;-62
2022/09/25 06:46:43;;;;;;;15.15;2.72;;;33.50;64.00;;;;;;5013847;28;20477;-63
2022/09/25 06:49:12;;;;;;;9.63;2.33;;;33.20;45.90;;;;;;4999128;28;20057;-65
2022/09/25 06:51:39;;;;;;;21.77;2.78;;;33.30;54.30;;;;;;4998898;28;20499;-63
2022/09/25 06:54:05;;;;;;;9.88;2.47;;;33.40;66.70;;;;;;4998432;28;20025;-63
2022/09/25 06:56:32;;;;;;;14.35;2.55;;;33.20;47.10;;;;;;4999184;28;20399;-64
2022/09/25 06:58:58;;;;;;;15.40;2.50;;;33.40;54.10;;;;;;5001029;28;20034;-62
2022/09/25 07:01:24;;;;;;;11.95;2.50;;;32.80;65.10;;;;;;4998228;28;20033;-63
2022/09/25 07:03:51;;;;;;;11.48;2.20;;;33.10;66.90;;;;;;4996222;28;20485;-65
2022/09/25 07:06:20;;;;;;;7.50;1.80;;;33.10;50.00;;;;;;4994524;28;20023;-66
2022/09/25 07:08:48;;;;;;;7.53;2.20;;;33.00;46.40;;;;;;4998958;28;20059;-63
2022/09/25 07:11:17;;;;;;;20.85;2.60;;;32.90;67.50;;;;;;5010310;28;20464;-64
2022/09/25 07:13:43;;;;;;;10.45;1.63;;;32.90;67.00;;;;;;4974224;28;20037;-63
2022/09/25 07:16:14;;;;;;;7.15;1.60;;;33.10;58.10;;;;;;5006156;28;20026;-65
2022/09/25 07:18:42;;;;;;;8.23;1.77;;;33.00;45.90;;;;;;4997774;28;20026;-63
2022/09/25 07:21:12;;;;;;;6.20;1.65;;;32.90;65.80;;;;;;4997349;28;20156;-63
2022/09/25 07:23:40;;;;;;;10.48;1.92;;;33.00;44.70;;;;;;5008098;28;20149;-64
2022/09/25 07:26:08;;;;;;;6.25;1.50;;;33.00;45.20;;;;;;4992874;28;20026;-62
2022/09/25 07:28:36;;;;;;;9.95;1.75;;;33.10;44.30;;;;;;4994475;28;20026;-62
2022/09/25 07:31:17;;;;;;;13.77;1.80;;;33.10;50.90;;;;;;4992748;28;20061;-65
2022/09/25 07:33:45;;;;;;;7.95;1.73;;;33.20;54.30;;;;;;4976831;28;20157;-63
2022/09/25 07:36:12;;;;;;;9.13;2.15;;;33.20;44.10;;;;;;4975313;28;20023;-62
2022/09/25 07:38:40;;;;;;;5.30;1.60;;;33.00;44.40;;;;;;4991795;28;20030;-62
2022/09/25 07:41:09;;;;;;;8.43;1.42;;;33.00;46.50;;;;;;4992955;28;20030;-63
2022/09/25 07:43:37;;;;;;;6.43;1.52;;;33.20;43.30;;;;;;5013339;28;20517;-62
2022/09/25 07:46:04;;;;;;;6.60;1.60;;;33.10;64.20;;;;;;4997732;28;20386;-63
2022/09/25 07:48:31;;;;;;;6.57;1.50;;;33.20;63.90;;;;;;4994614;28;20050;-63
2022/09/25 07:51:02;;;;;;;7.10;1.60;;;33.10;42.50;;;;;;4994770;28;20480;-63
2022/09/25 07:53:29;;;;;;;4.38;1.30;;;33.30;61.60;;;;;;4993649;28;20030;-62
2022/09/25 07:55:58;;;;;;;4.85;1.15;;;33.10;42.20;;;;;;4992046;28;20061;-62
2022/09/25 07:58:25;;;;;;;8.55;1.63;;;33.00;63.10;;;;;;4975670;28;20034;-63
2022/09/25 08:01:02;;;;;;;4.68;1.20;;;33.10;63.70;;;;;;4989447;28;20524;-62
2022/09/25 08:03:29;;;;;;;5.47;1.77;;;33.10;42.00;;;;;;4996642;28;20081;-64
2022/09/25 08:06:06;;;;;;;9.68;1.50;;;33.20;69.90;;;;;;4998118;28;20032;-62
2022/09/25 08:08:35;;;;;;;10.25;1.40;;;33.10;74.50;;;;;;4996599;28;20034;-62
2022/09/25 08:11:10;;;;;;;9.18;1.40;;;33.00;59.10;;;;;;4995960;28;20037;-62
2022/09/25 08:13:39;;;;;;;1.83;0.80;;;;;;;;;;5015873;28;20084;-63
2022/09/25 08:16:10;;;;;;;4.13;1.10;;;33.10;60.00;;;;;;5009105;28;20444;-63
2022/09/25 08:18:40;;;;;;;4.72;1.10;;;33.00;60.20;;;;;;5005822;28;20030;-63
2022/09/25 08:21:08;;;;;;;4.57;1.15;;;33.30;59.50;;;;;;4994239;28;20038;-63
2022/09/25 08:23:36;;;;;;;5.03;1.50;;;33.10;43.50;;;;;;5008290;28;20025;-63
2022/09/25 08:26:03;;;;;;;5.50;1.60;;;33.10;61.70;;;;;;4994881;28;20027;-64
2022/09/25 08:28:29;;;;;;;5.15;1.27;;;;;;;;;;4991848;28;20022;-62
2022/09/25 08:30:58;;;;;;;6.63;1.42;;;32.90;63.50;;;;;;4995559;28;20046;-62
2022/09/25 08:33:26;;;;;;;8.43;1.30;;;32.90;67.40;;;;;;5002154;28;20076;-67
2022/09/25 08:35:57;;;;;;;2.83;1.27;;;33.00;43.20;;;;;;5012524;28;20428;-62
2022/09/25 08:38:24;;;;;;;5.18;1.60;;;33.00;51.00;;;;;;5011228;28;20072;-62
2022/09/25 08:41:16;;;;;;;6.72;1.42;;;32.80;58.30;;;;;;4999045;28;20503;-62
2022/09/25 08:44:03;;;;;;;6.15;1.60;;;32.80;45.00;;;;;;5013462;28;20393;-63
2022/09/25 08:49:25;;;;;;;6.20;1.67;;;32.70;45.60;;;;;;4999406;28;20111;-63
2022/09/25 08:51:57;;;;;;;7.03;1.75;;;32.60;45.50;;;;;;5007579;28;20030;-63
2022/09/25 08:54:27;;;;;;;7.10;1.67;;;32.70;49.30;;;;;;4967070;28;20061;-64
2022/09/25 08:56:57;;;;;;;8.55;1.13;;;32.60;45.70;;;;;;4994983;28;20029;-62
2022/09/25 08:59:43;;;;;;;6.95;1.48;;;32.80;74.50;;;;;;5004497;28;20085;-63
2022/09/25 09:02:28;;;;;;;6.22;1.73;;;32.60;45.90;;;;;;5005461;28;20437;-62
2022/09/25 09:04:59;;;;;;;10.63;2.00;;;32.70;72.90;;;;;;5011602;28;20033;-62
2022/09/25 09:07:26;;;;;;;8.95;1.77;;;;;;;;;;4995020;28;20105;-61
2022/09/25 09:10:06;;;;;;;5.88;1.50;;;32.60;59.50;;;;;;5000251;28;20487;-62
2022/09/25 09:12:43;;;;;;;6.15;1.50;;;32.60;69.80;;;;;;4993741;28;20416;-63
2022/09/25 09:15:35;;;;;;;5.38;1.30;;;32.70;69.40;;;;;;5023176;28;20087;-62
2022/09/25 09:18:25;;;;;;;7.32;1.30;;;32.60;45.00;;;;;;5000098;28;20034;-63
2022/09/25 09:20:57;;;;;;;4.38;1.20;;;32.90;47.50;;;;;;5016622;28;20296;-61
2022/09/25 09:23:46;;;;;;;6.75;1.55;;;32.90;45.40;;;;;;5016186;28;20054;-64
2022/09/25 09:26:25;;;;;;;3.00;1.30;;;32.60;45.20;;;;;;5015349;28;20492;-63
2022/09/25 09:29:27;;;;;;;5.70;1.27;;;32.70;62.20;;;;;;4999157;28;20026;-63
2022/09/25 09:32:15;;;;;;;8.52;1.42;;;32.80;57.40;;;;;;4995900;28;20028;-63
2022/09/25 09:35:16;;;;;;;6.15;1.70;;;32.60;45.30;;;;;;4994082;28;20030;-62
2022/09/25 09:38:19;;;;;;;5.88;1.58;;;32.60;45.20;;;;;;5019777;28;20314;-63
2022/09/25 09:41:07;;;;;;;6.35;1.40;;;32.70;50.40;;;;;;4995949;28;20069;-62
2022/09/25 09:43:49;;;;;;;5.13;1.42;;;32.50;51.70;;;;;;5004288;28;20022;-62
2022/09/25 09:46:40;;;;;;;5.03;1.50;;;32.60;45.40;;;;;;5014087;28;20019;-62
2022/09/25 09:49:34;;;;;;;7.25;1.40;;;32.70;55.30;;;;;;4977149;28;20054;-63
2022/09/25 09:52:16;;;;;;;8.20;1.42;;;32.50;80.80;;;;;;5011605;28;20079;-62
2022/09/25 09:55:19;;;;;;;10.05;1.77;;;32.00;47.30;;;;;;4994082;28;20072;-63
2022/09/25 09:57:56;;;;;;;7.57;1.48;;;32.60;46.40;;;;;;4993800;28;20046;-61
2022/09/25 10:00:23;;;;;;;16.98;1.60;;;32.70;54.60;;;;;;5014107;28;20038;-64
2022/09/25 10:03:01;;;;;;;8.07;1.42;;;32.40;47.80;;;;;;5010444;28;20030;-62
2022/09/25 10:05:54;;;;;;;12.38;1.70;;;;;;;;;;4992962;28;20033;-62
2022/09/25 10:08:21;;;;;;;5.22;1.40;;;;;;;;;;4991434;28;20081;-63
2022/09/25 10:10:54;;;;;;;6.80;1.52;;;32.40;75.50;;;;;;5011355;28;20076;-61
2022/09/25 10:13:31;;;;;;;11.15;1.52;;;32.30;79.10;;;;;;4992551;28;20116;-62
2022/09/25 10:16:18;;;;;;;11.23;1.60;;;32.40;46.60;;;;;;4976378;28;20038;-62
2022/09/25 10:18:56;;;;;;;9.27;1.60;;;32.30;47.40;;;;;;4989654;28;20033;-62
2022/09/25 10:21:27;;;;;;;11.23;2.03;;;32.10;64.20;;;;;;4997128;28;20556;-61
2022/09/25 10:23:57;;;;;;;8.80;1.50;;;32.40;62.80;;;;;;5009001;28;20029;-62
2022/09/25 10:26:39;;;;;;;6.38;1.30;;;32.10;47.60;;;;;;4996036;28;20031;-62
2022/09/25 10:29:20;;;;;;;10.20;1.67;;;32.20;47.30;;;;;;5018702;28;20570;-62
2022/09/25 10:31:47;;;;;;;5.95;1.45;;;31.80;59.10;;;;;;4994531;28;20041;-62
2022/09/25 10:34:16;;;;;;;4.53;1.45;;;32.00;48.30;;;;;;4994543;28;20026;-63
2022/09/25 10:36:52;;;;;;;6.43;1.15;;;31.80;50.70;;;;;;5009562;28;20037;-61
2022/09/25 10:39:33;;;;;;;4.55;1.25;;;32.10;75.80;;;;;;5008997;28;20169;-63
2022/09/25 10:42:01;;;;;;;7.53;1.70;;;;;;;;;;4993042;28;20365;-62
2022/09/25 10:44:35;;;;;;;3.10;1.20;;;32.00;51.60;;;;;;5008828;28;20431;-64
2022/09/25 10:50:15;;;;;;;6.38;1.38;;;32.10;60.80;;;;;;4990515;28;20547;-63
2022/09/25 10:52:48;;;;;;;8.02;1.60;;;32.00;47.70;;;;;;4992114;28;20124;-64
2022/09/25 10:55:42;;;;;;;5.65;1.65;;;31.80;51.20;;;;;;5020151;28;20113;-62
2022/09/25 10:58:26;;;;;;;3.60;1.20;;;32.00;47.70;;;;;;5010095;28;20030;-61
2022/09/25 11:00:57;;;;;;;9.15;1.65;;;32.10;51.60;;;;;;4989182;28;20049;-61
2022/09/25 11:03:38;;;;;;;11.57;1.40;;;31.90;52.20;;;;;;4987811;28;20025;-63
2022/09/25 11:06:09;;;;;;;4.80;1.30;;;31.90;91.10;;;;;;4992202;28;20413;-62
2022/09/25 11:08:40;;;;;;;6.80;1.38;;;31.90;52.20;;;;;;4992346;28;20108;-63
2022/09/25 11:11:08;;;;;;;1.92;1.20;;;31.90;70.30;;;;;;4995828;28;20030;-62
2022/09/25 11:13:51;;;;;;;8.00;1.70;;;31.90;89.10;;;;;;4992995;28;20022;-62
2022/09/25 11:16:18;;;;;;;8.57;1.42;;;32.00;56.10;;;;;;4993513;28;20462;-62
2022/09/25 11:19:06;;;;;;;4.68;1.02;;;31.80;87.60;;;;;;4994646;28;20030;-62
2022/09/25 11:21:58;;;;;;;3.60;1.10;;;31.70;48.40;;;;;;5011524;28;20169;-62
2022/09/25 11:24:39;;;;;;;5.85;1.40;;;31.70;49.40;;;;;;4999372;28;20102;-64
2022/09/25 11:27:17;;;;;;;4.13;1.33;;;31.60;85.30;;;;;;4994807;28;20076;-62
2022/09/25 11:29:58;;;;;;;8.20;1.30;;;31.60;49.30;;;;;;4994145;28;20088;-62
2022/09/25 11:32:24;;;;;;;6.13;1.85;;;31.70;49.50;;;;;;4994449;28;20441;-62
2022/09/25 11:35:35;;;;;;;3.85;1.60;;;31.70;89.40;;;;;;5007916;28;20097;-61
2022/09/25 11:38:15;;;;;;;3.35;1.10;;;31.50;49.10;;;;;;5006219;28;20037;-61
2022/09/25 11:41:13;;;;;;;6.68;1.48;;;31.10;75.10;;;;;;5020903;28;20030;-62
2022/09/25 11:43:43;;;;;;;5.78;1.73;;;;;;;;;;5002479;28;20026;-67
2022/09/25 11:46:38;;;;;;;6.53;1.63;;;31.90;48.90;;;;;;5001808;28;20388;-66
2022/09/25 11:49:15;;;;;;;5.85;1.50;;;32.00;49.00;;;;;;4996680;28;20189;-66
2022/09/25 11:52:49;;;;;;;5.45;1.50;;;32.10;80.10;;;;;;4996978;28;20056;-64
2022/09/25 11:55:48;;;;;;;4.72;1.50;;;32.40;80.00;;;;;;4935213;29;20390;-65
2022/09/25 11:58:52;;;;;;;3.80;1.50;;;32.70;85.20;;;;;;4950601;28;20054;-65
2022/09/25 12:01:43;;;;;;;8.57;1.40;;;32.40;51.10;;;;;;4919717;29;20110;-65
2022/09/25 12:04:38;;;;;;;4.78;1.30;;;32.50;89.30;;;;;;4951258;29;20035;-66
2022/09/25 12:07:28;;;;;;;8.75;1.40;;;32.60;50.20;;;;;;4937314;28;20126;-67
2022/09/25 12:10:31;;;;;;;5.68;1.50;;;32.50;48.90;;;;;;4938132;28;20031;-66
2022/09/25 12:12:58;;;;;;;10.75;1.40;;;;;;;;;;4935887;29;20481;-66
2022/09/25 12:15:48;;;;;;;5.53;1.30;;;32.40;49.10;;;;;;4934861;29;20027;-66
2022/09/25 12:18:40;;;;;;;4.82;1.40;;;32.50;80.00;;;;;;4955004;28;20043;-66
2022/09/25 12:21:26;;;;;;;8.80;1.30;;;32.30;81.10;;;;;;4954579;28;20645;-66
2022/09/25 12:24:22;;;;;;;6.30;1.53;;;32.30;49.40;;;;;;4933696;29;20035;-66
2022/09/25 12:27:47;;;;;;;5.50;1.53;;;32.20;49.40;;;;;;4991275;28;20060;-66
2022/09/25 12:30:26;;;;;;;5.57;1.38;;;32.30;77.10;;;;;;4959885;28;20073;-66
2022/09/25 12:33:16;;;;;;;7.63;1.92;;;32.00;51.10;;;;;;4996966;28;20380;-67
2022/09/25 12:35:59;;;;;;;8.90;1.60;;;32.00;50.40;;;;;;4988203;28;20033;-66
2022/09/25 12:38:35;;;;;;;8.02;1.85;;;31.90;83.10;;;;;;5009396;28;20149;-68
2022/09/25 12:41:10;;;;;;;9.45;1.60;;;31.90;84.70;;;;;;4995810;28;20042;-66
2022/09/25 12:43:46;;;;;;;4.80;1.38;;;31.80;83.80;;;;;;5003927;28;20076;-66
2022/09/25 12:46:28;;;;;;;8.98;1.70;;;31.70;50.90;;;;;;4994551;28;20034;-67
2022/09/25 12:48:55;;;;;;;5.53;1.77;;;;;;;;;;4998666;28;20054;-67
2022/09/25 12:51:39;;;;;;;4.88;1.65;;;31.60;86.00;;;;;;5016369;28;20031;-66
2022/09/25 12:54:46;;;;;;;6.57;1.85;;;31.70;51.50;;;;;;4994220;28;20539;-68
2022/09/25 12:57:19;;;;;;;7.35;1.40;;;31.70;51.40;;;;;;4953391;28;20524;-66
2022/09/25 12:59:45;;;;;;;4.60;1.20;;;;;;;;;;4936967;28;20493;-65
2022/09/25 13:02:20;;;;;;;6.93;1.67;;;31.60;78.30;;;;;;4969263;28;20118;-66
2022/09/25 13:05:03;;;;;;;4.50;1.27;;;30.90;86.50;;;;;;4968951;28;20749;-67
2022/09/25 13:08:06;;;;;;;9.45;1.65;;;31.40;51.80;;;;;;4969502;28;20062;-66
2022/09/25 13:10:45;;;;;;;8.52;1.33;;;31.30;74.70;;;;;;4969440;28;20035;-66
2022/09/25 13:13:23;;;;;;;7.30;1.70;;;31.30;52.10;;;;;;4952688;28;20078;-67
2022/09/25 13:16:07;;;;;;;8.52;1.73;;;31.20;52.10;;;;;;4936646;28;20117;-65
2022/09/25 13:18:35;;;;;;;5.43;1.33;;;31.10;88.70;;;;;;4952683;28;20027;-66
2022/09/25 13:21:22;;;;;;;8.88;1.60;;;31.10;80.30;;;;;;4953119;28;20047;-66
2022/09/25 13:23:52;;;;;;;14.40;1.98;;;30.80;52.70;;;;;;4951729;28;20117;-66
2022/09/25 13:26:25;;;;;;;12.27;2.15;;;31.10;90.50;;;;;;4952394;28;20035;-66
2022/09/25 13:29:03;;;;;;;8.40;1.92;;;31.00;90.10;;;;;;4968834;28;20053;-66
2022/09/25 13:31:33;;;;;;;14.35;2.30;;;31.00;52.50;;;;;;4952881;28;20038;-67
2022/09/25 13:34:10;;;;;;;10.32;1.83;;;31.00;59.80;;;;;;5002146;28;20376;-66
2022/09/25 13:36:40;;;;;;;12.30;2.50;;;;;;;;;;4999186;28;20029;-67
2022/09/25 13:42:37;;;;;;;18.00;2.40;;;30.90;52.70;;;;;;4997884;28;20113;-69
2022/09/25 13:45:31;;;;;;;6.22;2.15;;;30.90;83.40;;;;;;5010989;28;20026;-65